Time;durP1;ratioP1;P1;durP2;ratioP2;P2;SDS_P1;SDS_P2;PMS_P1;PMS_P2;Temp;Humidity;BMP_temperature;BMP_pressure;BME280_temperature;BME280_humidity;BME280_pressure;Samples;Min_cycle;Max_cycle;Signal;HPM_P1;HPM_P2
2021/04/11 00:00:39;;;;;;;17.98;10.40;;;;;;;5.16;44.58;100588.86;1751519;80;21178;-60
2021/04/11 00:03:09;;;;;;;16.80;11.10;;;;;;;5.13;44.61;100587.59;1749922;79;21651;-62
2021/04/11 00:05:40;;;;;;;15.15;10.63;;;;;;;5.10;44.75;100585.00;1749452;79;21658;-61
2021/04/11 00:08:10;;;;;;;16.05;11.05;;;;;;;5.02;44.92;100592.41;1750245;80;22067;-62
2021/04/11 00:10:42;;;;;;;17.60;10.48;;;;;;;4.99;44.97;100591.55;1753480;79;21650;-62
2021/04/11 00:13:32;;;;;;;15.23;10.82;;;;;;;5.02;44.98;100595.02;1751580;79;22013;-63
2021/04/11 00:16:01;;;;;;;15.80;10.90;;;;;;;4.98;45.07;100589.39;1757737;79;21156;-61
2021/04/11 00:18:28;;;;;;;17.60;10.25;;;;;;;4.96;44.99;100594.20;1754363;79;21646;-63
2021/04/11 00:20:57;;;;;;;15.98;9.93;;;;;;;4.98;44.86;100595.91;1752334;79;22623;-62
2021/04/11 00:23:26;;;;;;;21.70;13.08;;;;;;;4.95;45.04;100597.22;1747452;80;21608;-62
2021/04/11 00:25:54;;;;;;;18.67;11.65;;;;;;;4.93;45.09;100594.20;1734413;79;21625;-62
2021/04/11 00:28:22;;;;;;;;;;;;;;;4.93;45.15;100596.80;1736187;81;21174;-61
2021/04/11 00:30:51;;;;;;;15.30;10.03;;;;;;;4.92;45.34;100598.55;1743712;79;20522;-62
2021/04/11 00:33:35;;;;;;;19.98;12.43;;;;;;;4.85;45.08;100591.63;1736181;79;21865;-64
2021/04/11 00:36:13;;;;;;;15.72;10.98;;;;;;;4.82;45.20;100603.36;1736342;79;21619;-62
2021/04/11 00:38:41;;;;;;;18.80;10.48;;;;;;;4.75;45.40;100606.44;1743679;79;25907;-64
2021/04/11 00:41:26;;;;;;;15.68;10.93;;;;;;;4.68;45.58;100602.97;1736396;79;21689;-64
2021/04/11 00:43:54;;;;;;;16.42;10.48;;;;;;;4.65;45.69;100606.91;1738444;79;21581;-62
2021/04/11 00:46:43;;;;;;;;;;;;;;;4.61;45.62;100607.77;1698288;81;22492;-62
2021/04/11 00:49:19;;;;;;;15.58;10.20;;;;;;;4.61;45.90;100610.37;1677009;83;20573;-63
2021/04/11 00:51:47;;;;;;;16.60;10.10;;;;;;;4.60;45.48;100600.84;1674709;83;21677;-62
2021/04/11 00:54:15;;;;;;;16.97;10.10;;;;;;;4.61;45.70;100604.30;1738862;79;21506;-61
2021/04/11 00:56:43;;;;;;;15.72;10.10;;;;;;;4.59;45.94;100605.61;1730695;81;21671;-62
2021/04/11 00:59:11;;;;;;;17.92;11.12;;;;;;;4.57;45.87;100597.38;1724708;80;21656;-64
2021/04/11 01:01:41;;;;;;;20.80;10.25;;;;;;;4.60;45.74;100605.20;1730387;79;21662;-62
2021/04/11 01:04:10;;;;;;;15.30;10.28;;;;;;;4.61;45.66;100606.91;1737811;79;21903;-61
2021/04/11 01:06:45;;;;;;;15.80;10.43;;;;;;;4.63;45.56;100610.37;1735937;81;21162;-63
2021/04/11 01:09:21;;;;;;;15.60;10.28;;;;;;;4.64;45.52;100605.61;1671109;83;22087;-62
2021/04/11 01:11:53;;;;;;;12.95;9.98;;;;;;;4.63;45.76;100605.16;1667378;83;26387;-62
2021/04/11 01:14:22;;;;;;;17.57;10.70;;;;;;;4.61;45.67;100608.21;1731212;80;21713;-69
2021/04/11 01:16:51;;;;;;;17.20;10.93;;;;;;;4.59;45.89;100606.05;1730181;81;21929;-61
2021/04/11 01:19:23;;;;;;;17.00;10.63;;;;;;;4.54;46.07;100611.28;1736667;79;21579;-62
2021/04/11 01:22:37;;;;;;;15.98;10.90;;;;;;;4.49;46.17;100606.52;1696707;83;21696;-61
2021/04/11 01:25:10;;;;;;;18.25;10.95;;;;;;;4.46;46.18;100604.80;1738870;80;22086;-61
2021/04/11 01:27:38;;;;;;;15.75;10.88;;;;;;;4.43;46.74;100608.70;1722304;80;21139;-65
2021/04/11 01:30:20;;;;;;;;;;;;;;;4.39;46.49;100608.28;1742222;79;21557;-61
2021/04/11 01:32:49;;;;;;;16.27;9.58;;;;;;;4.42;46.32;100606.09;1719521;80;20606;-62
2021/04/11 01:35:27;;;;;;;20.17;10.58;;;;;;;4.40;46.20;100611.74;1742355;79;21610;-62
2021/04/11 01:37:56;;;;;;;17.10;9.93;;;;;;;4.42;46.08;100606.09;1737730;81;21953;-62
2021/04/11 01:40:40;;;;;;;16.52;10.10;;;;;;;4.44;46.15;100606.95;1732371;81;21667;-64
2021/04/11 01:43:15;;;;;;;16.07;10.53;;;;;;;4.45;46.27;100609.56;1847858;75;23293;-64
2021/04/11 01:45:45;;;;;;;15.60;10.88;;;;;;;4.38;46.30;100612.19;1779622;78;21137;-62
2021/04/11 01:48:15;;;;;;;18.05;11.73;;;;;;;4.33;46.39;100616.52;1772442;78;21894;-63
2021/04/11 01:50:43;;;;;;;14.93;10.40;;;;;;;4.33;46.48;100620.43;1801881;78;21567;-62
2021/04/11 01:53:11;;;;;;;14.83;10.38;;;;;;;4.28;46.66;100621.75;1770778;78;21568;-63
2021/04/11 01:56:04;;;;;;;20.92;12.40;;;;;;;4.21;46.95;100618.72;1747515;79;21580;-63
2021/04/11 01:58:35;;;;;;;17.62;11.25;;;;;;;4.13;46.93;100619.17;1700554;81;21696;-63
2021/04/11 02:01:21;;;;;;;17.32;11.60;;;;;;;4.12;46.88;100618.72;1693615;83;21913;-62
2021/04/11 02:03:55;;;;;;;17.60;11.18;;;;;;;4.12;46.95;100613.52;1700683;82;21235;-62
2021/04/11 02:06:25;;;;;;;19.37;12.15;;;;;;;4.03;47.05;100615.27;1680285;83;21656;-62
2021/04/11 02:08:59;;;;;;;17.77;11.68;;;;;;;4.03;47.02;100620.48;1700710;81;21638;-63
2021/04/11 02:11:29;;;;;;;16.35;11.22;;;;;;;4.03;46.99;100619.59;1699876;83;21681;-66
2021/04/11 02:13:58;;;;;;;17.95;11.18;;;;;;;4.01;47.10;100618.72;1700219;83;22142;-64
2021/04/11 02:16:32;;;;;;;15.13;10.53;;;;;;;4.02;47.21;100620.47;1701886;82;21699;-63
2021/04/11 02:19:05;;;;;;;17.27;11.15;;;;;;;4.02;47.24;100626.98;1700559;82;21657;-61
2021/04/11 02:21:33;;;;;;;19.82;11.97;;;;;;;3.96;47.27;100625.69;1704294;83;21622;-62
2021/04/11 02:24:08;;;;;;;19.20;11.48;;;;;;;3.89;47.48;100628.70;1768976;79;21559;-63
2021/04/11 02:26:37;;;;;;;18.50;10.98;;;;;;;3.88;47.60;100634.35;1764089;79;21867;-63
2021/04/11 02:29:15;;;;;;;16.52;10.80;;;;;;;3.91;47.63;100647.78;1762873;79;21142;-62
2021/04/11 02:31:44;;;;;;;17.80;11.50;;;;;;;3.88;47.74;100643.45;1765102;79;21625;-62
2021/04/11 02:34:21;;;;;;;22.58;11.75;;;;;;;3.84;47.67;100643.03;1751984;80;21678;-63
2021/04/11 02:37:08;;;;;;;17.30;11.10;;;;;;;3.82;47.68;100648.63;1752528;79;21059;-62
2021/04/11 02:39:40;;;;;;;17.62;11.10;;;;;;;3.82;47.63;100651.68;1732835;80;21862;-67
2021/04/11 02:42:16;;;;;;;18.02;11.08;;;;;;;3.79;47.87;100652.55;1766592;79;21500;-65
2021/04/11 02:44:48;;;;;;;16.43;10.23;;;;;;;3.78;47.67;100649.50;1767122;80;21584;-63
2021/04/11 02:47:18;;;;;;;18.73;11.75;;;;;;;3.79;47.61;100655.59;1765798;79;21588;-62
2021/04/11 02:49:50;;;;;;;18.87;11.60;;;;;;;3.80;47.55;100658.17;1764328;79;21650;-63
2021/04/11 02:52:38;;;;;;;17.57;11.20;;;;;;;3.79;47.67;100657.76;1739332;81;22125;-62
2021/04/11 02:55:10;;;;;;;16.25;11.03;;;;;;;3.75;47.85;100665.13;1796799;78;21559;-61
2021/04/11 02:57:38;;;;;;;14.90;10.72;;;;;;;3.72;47.86;100669.02;1798660;78;21237;-60
2021/04/11 03:00:11;;;;;;;;;;;;;;;3.67;48.09;100666.42;1797508;78;21571;-60
2021/04/11 03:02:40;;;;;;;14.58;10.72;;;;;;;3.64;48.26;100669.45;1774057;78;20488;-62
2021/04/11 03:05:11;;;;;;;18.40;11.90;;;;;;;3.63;47.94;100676.80;1764379;79;22050;-60
2021/04/11 03:07:46;;;;;;;19.35;11.05;;;;;;;3.65;47.93;100678.97;1799624;78;21575;-62
2021/04/11 03:10:26;;;;;;;16.12;11.83;;;;;;;3.64;47.98;100679.84;1801001;78;21555;-62
2021/04/11 03:12:54;;;;;;;19.70;11.48;;;;;;;3.60;48.17;100683.28;1787040;78;21635;-63
2021/04/11 03:15:26;;;;;;;20.15;11.88;;;;;;;3.53;48.44;100681.55;1771300;79;21599;-61
2021/04/11 03:17:54;;;;;;;19.48;11.60;;;;;;;3.53;48.38;100677.66;1787301;78;22086;-64
2021/04/11 03:20:37;;;;;;;19.77;11.48;;;;;;;3.55;48.36;100689.78;1773724;79;22059;-59
2021/04/11 03:23:08;;;;;;;18.23;12.45;;;;;;;3.51;48.48;100699.30;1788538;78;21615;-63
2021/04/11 03:25:38;;;;;;;19.25;11.20;;;;;;;3.51;48.61;100699.30;1800607;78;21567;-62
2021/04/11 03:28:21;;;;;;;18.57;11.83;;;;;;;3.52;48.55;100698.87;1790182;79;21755;-62
2021/04/11 03:31:04;;;;;;;20.12;11.95;;;;;;;3.55;48.47;100701.48;1758597;80;22021;-63
2021/04/11 03:33:37;;;;;;;19.07;11.18;;;;;;;3.53;48.49;100707.56;1740918;81;21674;-62
2021/04/11 03:36:08;;;;;;;17.37;11.65;;;;;;;3.49;48.72;100715.34;1765418;80;21662;-62
2021/04/11 03:38:38;;;;;;;21.73;11.57;;;;;;;3.48;48.64;100710.12;1791250;79;21162;-64
2021/04/11 03:41:06;;;;;;;18.30;11.93;;;;;;;3.53;48.57;100714.92;1765728;79;21644;-62
2021/04/11 03:43:46;;;;;;;18.62;12.03;;;;;;;3.57;48.55;100714.50;1796272;78;22098;-63
2021/04/11 03:46:34;;;;;;;18.67;11.68;;;;;;;3.56;48.71;100714.05;1798033;78;21178;-62
2021/04/11 03:49:30;;;;;;;18.85;11.80;;;;;;;3.61;48.56;100714.94;1792210;78;21633;-66
2021/04/11 03:52:00;;;;;;;17.62;11.08;;;;;;;3.67;48.43;100724.05;1773872;79;21481;-62
2021/04/11 03:54:37;;;;;;;17.17;11.33;;;;;;;3.72;48.27;100722.34;1798215;79;21576;-61
2021/04/11 03:57:13;;;;;;;17.40;11.75;;;;;;;3.79;48.19;100734.50;1770630;78;22043;-62
2021/04/11 04:00:10;;;;;;;18.07;11.12;;;;;;;3.84;48.23;100735.39;1798731;78;21543;-62
2021/04/11 04:02:55;;;;;;;17.40;12.23;;;;;;;3.85;48.60;100742.75;1799749;78;21551;-63
2021/04/11 04:05:27;;;;;;;15.38;10.93;;;;;;;3.85;48.63;100750.56;1719326;81;21621;-62
2021/04/11 04:07:59;;;;;;;18.92;11.93;;;;;;;3.87;48.62;100748.39;1728956;81;21574;-60
2021/04/11 04:10:44;;;;;;;20.32;12.35;;;;;;;3.86;48.61;100750.57;1718233;81;21979;-61
2021/04/11 04:13:37;;;;;;;17.40;10.68;;;;;;;3.84;48.65;100750.11;1726647;81;21596;-62
2021/04/11 04:16:15;;;;;;;16.42;12.18;;;;;;;3.88;48.54;100752.73;1727411;81;21667;-62
2021/04/11 04:19:35;;;;;;;18.90;12.45;;;;;;;3.99;48.64;100757.94;1818632;77;23226;-59
2021/04/11 04:22:32;;;;;;;17.25;12.50;;;;;;;3.99;48.53;100756.64;1558644;88;21734;-65
2021/04/11 04:25:48;;;;;;;19.65;11.73;;;;;;;4.02;48.55;100761.00;1684716;83;21881;-61
2021/04/11 04:28:42;;;;;;;14.68;10.03;;;;;;;4.07;48.36;100763.19;1672653;84;22428;-66
2021/04/11 04:31:17;;;;;;;17.37;11.68;;;;;;;4.10;48.71;100765.78;1655171;84;21683;-61
2021/04/11 04:34:06;;;;;;;18.48;11.95;;;;;;;4.14;48.85;100772.72;1691355;83;21236;-62
2021/04/11 04:36:50;;;;;;;17.07;11.10;;;;;;;4.21;48.82;100769.27;1686907;83;21638;-62
2021/04/11 04:39:28;;;;;;;19.57;11.85;;;;;;;4.27;49.13;100774.47;1681667;83;22125;-63
2021/04/11 04:42:18;;;;;;;17.98;11.28;;;;;;;4.34;49.10;100775.36;1687506;83;21067;-62
2021/04/11 04:45:12;;;;;;;14.00;10.55;;;;;;;4.42;48.92;100770.16;1659075;83;21112;-63
2021/04/11 04:48:18;;;;;;;17.92;11.22;;;;;;;4.53;48.64;100777.98;1684510;83;22466;-67
2021/04/11 04:51:18;;;;;;;17.17;10.60;;;;;;;4.62;48.34;100776.68;1654013;83;21602;-61
2021/04/11 04:54:09;;;;;;;16.42;10.78;;;;;;;4.74;47.83;100767.98;1687406;82;22051;-59
2021/04/11 04:56:46;;;;;;;15.15;11.38;;;;;;;4.85;47.65;100767.53;1685275;83;21664;-57
2021/04/11 04:59:19;;;;;;;16.10;10.25;;;;;;;4.97;47.64;100765.33;1683408;82;21708;-58
2021/04/11 05:02:06;;;;;;;16.67;10.98;;;;;;;5.08;47.78;100776.60;1681376;83;21587;-59
2021/04/11 05:04:36;;;;;;;18.00;11.75;;;;;;;5.17;47.92;100777.03;1678940;83;21217;-58
2021/04/11 05:07:11;;;;;;;17.57;11.75;;;;;;;5.25;47.83;100776.15;1650783;83;22608;-59
2021/04/11 05:10:01;;;;;;;14.38;10.98;;;;;;;5.39;47.79;100776.09;1833708;75;23167;-57
2021/04/11 05:12:54;;;;;;;19.42;11.12;;;;;;;5.42;47.73;100777.36;1683749;83;21150;-60
2021/04/11 05:15:27;;;;;;;19.02;11.50;;;;;;;5.50;47.12;100780.39;1685862;83;22121;-59
2021/04/11 05:18:06;;;;;;;16.85;10.98;;;;;;;5.60;47.22;100783.41;1712780;81;21559;-60
2021/04/11 05:20:38;;;;;;;15.53;10.43;;;;;;;5.68;47.00;100784.68;1713904;81;21173;-60
2021/04/11 05:23:21;;;;;;;15.45;10.38;;;;;;;5.76;46.87;100785.05;1720071;80;21582;-59
2021/04/11 05:26:26;;;;;;;16.67;10.90;;;;;;;5.87;46.73;100790.67;1751335;80;21550;-60
2021/04/11 05:29:24;;;;;;;17.50;10.58;;;;;;;5.97;46.71;100791.07;1746618;80;22136;-62
2021/04/11 05:31:52;;;;;;;21.12;10.85;;;;;;;6.09;46.78;100791.47;1743923;80;21741;-62
2021/04/11 05:34:20;;;;;;;17.17;10.78;;;;;;;6.22;46.77;100784.84;1742833;80;21497;-60
2021/04/11 05:37:06;;;;;;;15.72;10.90;;;;;;;6.33;46.59;100786.48;1747280;80;21607;-62
2021/04/11 05:40:14;;;;;;;;;;;;;;;6.41;46.15;100788.18;1749267;79;21649;-62
2021/04/11 05:42:49;;;;;;;14.65;9.93;;;;;;;6.51;46.49;100793.34;1752028;80;22125;-65
2021/04/11 05:45:38;;;;;;;16.65;10.70;;;;;;;6.59;46.18;100794.13;1740530;80;21694;-66
2021/04/11 05:48:21;;;;;;;14.75;10.53;;;;;;;6.71;45.94;100789.27;1749635;78;21542;-58
2021/04/11 05:51:28;;;;;;;17.12;11.38;;;;;;;6.81;45.91;100797.44;1741487;79;21584;-60
2021/04/11 05:54:19;;;;;;;19.12;10.23;;;;;;;6.91;45.80;100795.19;1737584;80;21176;-58
2021/04/11 05:56:53;;;;;;;18.67;10.70;;;;;;;7.05;45.56;100797.66;1744702;79;21946;-63
2021/04/11 05:59:24;;;;;;;17.77;11.00;;;;;;;7.14;45.48;100796.27;1739139;80;21594;-60
2021/04/11 06:01:57;;;;;;;14.13;10.30;;;;;;;7.24;45.50;100798.78;1747836;80;22545;-61
2021/04/11 06:04:39;;;;;;;14.93;10.53;;;;;;;7.34;45.41;100803.88;1740941;80;21611;-60
2021/04/11 06:07:23;;;;;;;16.45;10.82;;;;;;;7.46;45.27;100796.77;1747263;79;21651;-60
2021/04/11 06:10:10;;;;;;;19.05;10.85;;;;;;;7.59;45.22;100804.90;1746297;80;22148;-61
2021/04/11 06:13:03;;;;;;;13.05;9.90;;;;;;;7.70;45.08;100799.55;1747121;80;23029;-60
2021/04/11 06:15:34;;;;;;;15.43;10.20;;;;;;;7.84;44.70;100802.86;1728332;80;21685;-62
2021/04/11 06:18:06;;;;;;;17.82;11.35;;;;;;;7.96;44.26;100797.44;1751860;79;21653;-60
2021/04/11 06:20:35;;;;;;;13.55;9.65;;;;;;;8.06;44.20;100797.32;1742165;80;21682;-62
2021/04/11 06:23:29;;;;;;;14.73;10.10;;;;;;;8.16;44.14;100799.80;1744585;80;22008;-62
2021/04/11 06:26:25;;;;;;;12.53;9.30;;;;;;;8.28;44.06;100800.05;1752220;79;21551;-62
2021/04/11 06:28:56;;;;;;;14.03;10.10;;;;;;;8.42;43.87;100802.52;1747567;79;21610;-60
2021/04/11 06:31:28;;;;;;;13.98;10.23;;;;;;;8.53;43.61;100799.28;1745063;80;21157;-60
2021/04/11 06:34:07;;;;;;;13.45;9.75;;;;;;;8.66;43.50;100802.55;1745574;79;21164;-61
2021/04/11 06:36:41;;;;;;;16.00;10.03;;;;;;;8.78;43.38;100801.50;1745854;80;22000;-60
2021/04/11 06:39:14;;;;;;;15.23;8.68;;;;;;;8.92;42.16;100803.88;1736406;79;21172;-60
2021/04/11 06:42:15;;;;;;;14.30;9.43;;;;;;;9.06;42.23;100803.19;1742380;80;21570;-60
2021/04/11 06:45:12;;;;;;;13.22;9.00;;;;;;;9.17;42.21;100801.66;1743595;80;21677;-60
2021/04/11 06:48:16;;;;;;;13.95;9.25;;;;;;;9.33;42.22;100802.25;1717865;80;21644;-62
2021/04/11 06:51:22;;;;;;;10.82;7.80;;;;;;;9.49;41.69;100809.38;1753369;80;22059;-60
2021/04/11 06:54:46;;;;;;;12.60;8.90;;;;;;;9.65;41.56;100808.63;1741705;79;21602;-63
2021/04/11 06:57:45;;;;;;;10.28;8.25;;;;;;;9.81;41.24;100807.39;1743193;80;21673;-61
2021/04/11 07:00:30;;;;;;;9.38;7.50;;;;;;;10.02;40.61;100816.61;1740877;80;21646;-59
2021/04/11 07:03:06;;;;;;;10.63;7.47;;;;;;;10.14;40.24;100819.41;1747247;80;21208;-59
2021/04/11 07:05:59;;;;;;;13.32;7.30;;;;;;;10.28;39.87;100819.08;1748603;79;22097;-59
2021/04/11 07:08:36;;;;;;;14.30;8.45;;;;;;;10.39;39.69;100810.53;1746675;78;21613;-59
2021/04/11 07:11:48;;;;;;;12.55;7.67;;;;;;;10.58;39.60;100817.53;1742455;80;21539;-59
2021/04/11 07:15:03;;;;;;;14.00;7.90;;;;;;;10.71;39.04;100815.01;1746876;78;21550;-59
2021/04/11 07:17:52;;;;;;;9.15;6.65;;;;;;;10.86;39.16;100815.08;1746621;79;21594;-57
2021/04/11 07:20:59;;;;;;;11.78;7.37;;;;;;;10.99;37.78;100818.27;1720785;81;22165;-61
2021/04/11 07:24:11;;;;;;;8.80;6.95;;;;;;;11.17;37.92;100817.37;1718465;81;21607;-60
2021/04/11 07:26:59;;;;;;;10.78;5.97;;;;;;;11.29;37.44;100819.22;1746126;80;21176;-59
2021/04/11 07:29:57;;;;;;;9.55;6.20;;;;;;;11.44;36.82;100819.72;1726148;80;21158;-62
2021/04/11 07:33:12;;;;;;;7.40;4.58;;;;;;;11.54;36.08;100821.18;1745146;80;21169;-63
2021/04/11 07:36:15;;;;;;;4.75;3.95;;;;;;;11.62;35.49;100823.16;1751750;80;21650;-60
2021/04/11 07:39:11;;;;;;;5.30;4.25;;;;;;;11.75;34.76;100817.06;1747677;80;21582;-59
2021/04/11 07:41:48;;;;;;;7.50;4.90;;;;;;;11.88;34.50;100819.78;1744815;79;21615;-60
2021/04/11 07:44:40;;;;;;;9.98;5.92;;;;;;;12.00;33.87;100822.53;1742826;80;21684;-59
2021/04/11 07:47:31;;;;;;;6.87;4.08;;;;;;;12.05;33.97;100815.78;1743547;80;21551;-61
2021/04/11 07:50:30;;;;;;;6.67;5.55;;;;;;;12.22;32.44;100822.75;1831785;77;23287;-59
2021/04/11 07:53:25;;;;;;;8.13;5.50;;;;;;;12.27;33.29;100826.08;1821681;77;21642;-58
2021/04/11 07:56:17;;;;;;;9.30;4.67;;;;;;;12.35;33.65;100823.20;1770537;79;21931;-59
2021/04/11 07:59:24;;;;;;;7.70;5.53;;;;;;;12.45;33.10;100819.38;1824990;77;21557;-58
2021/04/11 08:02:20;;;;;;;7.87;5.25;;;;;;;12.59;33.03;100816.29;1810874;77;21626;-59
2021/04/11 08:05:32;;;;;;;6.10;5.40;;;;;;;12.76;32.60;100821.02;1789745;78;21561;-59
2021/04/11 08:08:23;;;;;;;9.18;4.97;;;;;;;12.88;32.59;100818.88;1779874;78;21722;-60
2021/04/11 08:11:20;;;;;;;5.83;4.30;;;;;;;12.97;32.16;100820.74;1835692;77;22068;-58
2021/04/11 08:14:14;;;;;;;7.10;4.90;;;;;;;12.97;31.94;100822.53;1820802;77;21676;-60
2021/04/11 08:17:08;;;;;;;7.17;4.58;;;;;;;13.02;31.84;100814.86;1772845;78;21550;-61
2021/04/11 08:20:30;;;;;;;6.53;5.50;;;;;;;13.11;31.89;100814.13;1735892;79;21605;-60
2021/04/11 08:23:33;;;;;;;6.95;5.15;;;;;;;13.24;31.75;100804.86;1744839;79;21646;-58
2021/04/11 08:26:25;;;;;;;12.45;5.65;;;;;;;13.35;32.27;100798.77;1744387;80;22035;-60
2021/04/11 08:29:31;;;;;;;5.72;4.67;;;;;;;13.44;31.12;100798.44;1704615;81;22101;-61
2021/04/11 08:32:26;;;;;;;5.17;4.35;;;;;;;13.47;31.07;100795.28;1743093;79;21188;-60
2021/04/11 08:35:39;;;;;;;6.03;4.70;;;;;;;13.61;30.59;100796.50;1689817;81;21689;-60
2021/04/11 08:38:47;;;;;;;8.03;5.03;;;;;;;13.68;30.32;100802.90;1705213;81;21721;-58
2021/04/11 08:41:50;;;;;;;5.50;4.90;;;;;;;13.75;30.71;100806.58;1701449;81;22084;-61
2021/04/11 08:44:55;;;;;;;5.65;4.87;;;;;;;13.87;29.80;100799.10;1683848;81;21603;-61
2021/04/11 08:47:45;;;;;;;10.00;5.05;;;;;;;13.94;30.25;100796.16;1748629;79;21674;-59
2021/04/11 08:50:29;;;;;;;6.47;4.75;;;;;;;13.98;30.17;100799.08;1737699;79;21682;-67
2021/04/11 08:53:29;;;;;;;6.72;5.17;;;;;;;14.04;30.05;100791.38;1706376;81;21626;-66
2021/04/11 08:56:10;;;;;;;7.12;4.72;;;;;;;14.15;29.87;100789.64;1742049;79;21979;-59
2021/04/11 08:59:16;;;;;;;7.28;5.75;;;;;;;14.20;29.92;100777.07;1737104;79;21697;-63
2021/04/11 09:02:25;;;;;;;6.15;5.47;;;;;;;14.28;30.17;100778.97;1742902;79;21654;-64
2021/04/11 09:05:30;;;;;;;8.05;4.90;;;;;;;14.44;29.90;100777.02;1709098;81;21624;-63
2021/04/11 09:08:30;;;;;;;8.73;5.25;;;;;;;14.50;29.63;100776.77;1713430;81;21644;-63
2021/04/11 09:11:21;;;;;;;7.10;5.45;;;;;;;14.58;29.80;100774.71;1651958;81;22196;-63
2021/04/11 09:14:26;;;;;;;9.45;5.37;;;;;;;14.65;29.41;100768.69;1705036;81;21655;-64
2021/04/11 09:17:11;;;;;;;9.90;5.25;;;;;;;14.71;29.66;100760.48;1684016;82;21661;-62
2021/04/11 09:20:11;;;;;;;7.42;5.78;;;;;;;14.76;28.22;100754.53;1855827;75;23260;-64
2021/04/11 09:23:07;;;;;;;10.10;5.67;;;;;;;14.76;28.76;100759.36;1798102;76;21586;-65
2021/04/11 09:25:36;;;;;;;12.18;5.72;;;;;;;14.77;28.47;100755.80;1835555;76;21944;-62
2021/04/11 09:28:26;;;;;;;9.48;5.83;;;;;;;14.78;28.32;100752.20;1799831;77;21602;-63
2021/04/11 09:31:24;;;;;;;7.87;6.00;;;;;;;14.83;28.84;100747.20;1831042;77;21658;-64
2021/04/11 09:34:34;;;;;;;7.10;5.92;;;;;;;14.83;28.62;100741.44;1796831;78;21690;-64
2021/04/11 09:37:17;;;;;;;6.92;5.37;;;;;;;14.87;28.72;100740.84;1684993;83;21202;-63
2021/04/11 09:40:14;;;;;;;7.55;5.67;;;;;;;14.98;28.79;100739.45;1746050;80;22053;-63
2021/04/11 09:43:13;;;;;;;6.97;6.13;;;;;;;15.09;29.15;100742.95;1809705;76;21718;-61
2021/04/11 09:45:52;;;;;;;6.22;5.45;;;;;;;15.15;28.73;100737.38;1794216;78;21678;-61
2021/04/11 09:48:41;;;;;;;6.25;5.55;;;;;;;15.21;28.51;100742.02;1786175;78;21608;-64
2021/04/11 09:51:23;;;;;;;7.62;5.60;;;;;;;15.28;28.16;100732.39;1769286;79;21647;-61
2021/04/11 09:54:23;;;;;;;7.92;5.67;;;;;;;15.28;27.33;100731.55;1769962;79;22160;-60
2021/04/11 09:57:03;;;;;;;8.90;6.40;;;;;;;15.18;27.73;100734.60;1769944;79;21150;-60
2021/04/11 10:00:12;;;;;;;8.50;6.50;;;;;;;15.21;27.51;100724.80;1713107;80;21256;-60
2021/04/11 10:03:18;;;;;;;7.65;6.85;;;;;;;15.35;27.93;100715.73;1833946;74;28324;-60
2021/04/11 10:05:57;;;;;;;7.97;7.17;;;;;;;15.47;27.72;100723.14;1817851;76;21531;-62
2021/04/11 10:09:04;;;;;;;9.63;6.97;;;;;;;15.64;27.71;100717.53;1820348;77;22040;-61
2021/04/11 10:12:04;;;;;;;7.83;6.42;;;;;;;15.74;28.07;100722.34;1814581;76;21565;-61
2021/04/11 10:14:59;;;;;;;8.33;6.60;;;;;;;15.86;27.95;100716.06;1814652;76;21641;-65
2021/04/11 10:17:38;;;;;;;6.45;5.83;;;;;;;15.97;26.71;100717.73;1818266;77;21090;-67
2021/04/11 10:20:20;;;;;;;8.43;6.22;;;;;;;15.98;26.31;100718.14;1817818;76;21560;-61
2021/04/11 10:23:28;;;;;;;8.35;6.42;;;;;;;15.99;27.15;100713.69;1812779;76;22017;-63
2021/04/11 10:26:03;;;;;;;8.30;6.45;;;;;;;16.09;27.75;100709.20;1817953;77;21646;-65
2021/04/11 10:28:45;;;;;;;8.13;6.15;;;;;;;16.26;28.07;100718.98;1818701;76;21741;-63
2021/04/11 10:31:37;;;;;;;8.73;6.50;;;;;;;16.33;27.12;100715.53;1820422;76;21185;-63
2021/04/11 10:34:37;;;;;;;9.50;6.83;;;;;;;16.31;27.50;100712.10;1788769;77;21575;-60
2021/04/11 10:37:37;;;;;;;9.63;6.35;;;;;;;16.44;27.56;100708.37;1814954;76;22036;-61
2021/04/11 10:40:18;;;;;;;8.50;6.60;;;;;;;16.55;27.43;100704.23;1814933;76;21524;-63
2021/04/11 10:43:25;;;;;;;10.48;7.40;;;;;;;16.66;27.53;100702.84;1821527;76;21660;-63
2021/04/11 10:46:21;;;;;;;10.65;6.80;;;;;;;16.70;26.54;100698.61;1816987;76;21630;-67
2021/04/11 10:49:20;;;;;;;9.23;6.30;;;;;;;16.72;26.65;100696.73;1818992;76;21627;-61
2021/04/11 10:52:17;;;;;;;6.83;6.03;;;;;;;16.79;26.07;100694.63;1812953;76;22057;-60
2021/04/11 10:55:04;;;;;;;9.58;7.33;;;;;;;16.87;25.56;100694.26;1819023;76;21692;-64
2021/04/11 10:57:58;;;;;;;7.97;6.65;;;;;;;16.92;25.36;100694.41;1820091;76;21639;-62
2021/04/11 11:01:20;;;;;;;11.95;6.85;;;;;;;16.96;25.35;100689.80;1818902;76;21575;-65
2021/04/11 11:04:33;;;;;;;7.83;6.33;;;;;;;16.99;25.64;100684.33;1825307;76;21725;-61
2021/04/11 11:07:32;;;;;;;10.75;6.80;;;;;;;17.01;25.26;100687.77;1814666;76;21627;-60
2021/04/11 11:10:07;;;;;;;;;;;;;;;16.96;25.29;100677.84;1820255;76;21639;-61
2021/04/11 11:12:57;;;;;;;12.75;7.20;;;;;;;16.93;24.52;100675.34;1834841;76;20472;-62
2021/04/11 11:15:54;;;;;;;19.15;7.28;;;;;;;16.88;25.63;100676.07;1822590;76;21575;-61
2021/04/11 11:18:30;;;;;;;11.80;7.62;;;;;;;16.97;25.72;100670.27;1820112;77;21606;-62
2021/04/11 11:21:31;;;;;;;10.93;7.27;;;;;;;17.07;25.40;100663.52;1812184;77;22004;-63
2021/04/11 11:24:35;;;;;;;16.75;8.00;;;;;;;17.16;25.53;100662.17;1825941;76;22361;-61
2021/04/11 11:27:43;;;;;;;12.18;8.78;;;;;;;17.30;25.65;100662.74;1776701;76;21573;-61
2021/04/11 11:30:28;;;;;;;12.78;7.42;;;;;;;17.40;25.46;100659.95;1819042;77;21662;-61
2021/04/11 11:33:09;;;;;;;17.12;7.72;;;;;;;17.52;25.13;100655.78;1831135;76;21946;-62
2021/04/11 11:36:13;;;;;;;16.05;7.37;;;;;;;17.61;25.19;100655.72;1826282;76;21578;-62
2021/04/11 11:42:31;;;;;;;14.35;7.40;;;;;;;17.65;23.93;100641.30;1786263;78;23311;-60
2021/04/11 11:45:39;;;;;;;9.55;6.42;;;;;;;17.64;24.44;100646.25;1720590;80;22713;-61
2021/04/11 11:48:16;;;;;;;9.00;5.92;;;;;;;17.75;24.62;100635.01;1755747;79;22105;-59
2021/04/11 11:51:10;;;;;;;17.23;7.03;;;;;;;17.80;24.16;100636.46;1761885;80;21174;-60
2021/04/11 11:54:11;;;;;;;9.08;6.72;;;;;;;17.82;23.85;100633.23;1764833;80;21586;-61
2021/04/11 11:56:54;;;;;;;42.48;27.30;;;;;;;17.89;23.59;100627.98;1744932;80;21207;-61
2021/04/11 11:59:29;;;;;;;41.77;29.00;;;;;;;17.80;23.57;100624.49;1737794;81;21564;-62
2021/04/11 12:02:13;;;;;;;18.60;13.08;;;;;;;17.85;23.77;100624.24;1741317;80;22122;-60
2021/04/11 12:05:10;;;;;;;12.30;8.68;;;;;;;17.93;24.08;100619.81;1743455;80;21676;-60
2021/04/11 12:07:54;;;;;;;;;;;;;;;18.06;24.37;100621.69;1684074;83;21232;-60
2021/04/11 12:10:38;;;;;;;12.55;7.53;;;;;;;18.18;23.38;100617.44;1701819;82;20493;-59
2021/04/11 12:13:41;;;;;;;15.05;9.30;;;;;;;18.15;23.66;100619.42;1701946;82;21613;-59
2021/04/11 12:16:26;;;;;;;20.62;8.93;;;;;;;18.17;23.52;100618.85;1694762;81;22020;-61
2021/04/11 12:19:09;;;;;;;58.25;32.98;;;;;;;18.22;23.34;100620.78;1699601;81;21683;-63
2021/04/11 12:21:59;;;;;;;13.03;9.03;;;;;;;18.31;23.33;100611.37;1680174;84;21528;-61
2021/04/11 12:24:40;;;;;;;8.78;6.33;;;;;;;18.40;23.35;100607.70;1709399;81;21253;-60
2021/04/11 12:27:11;;;;;;;7.25;5.85;;;;;;;18.51;23.11;100620.34;1675603;84;21648;-58
2021/04/11 12:29:42;;;;;;;15.93;5.70;;;;;;;18.58;22.97;100612.38;1671903;83;21682;-59
2021/04/11 12:32:25;;;;;;;7.15;5.35;;;;;;;18.66;22.43;100604.77;1707655;83;21834;-59
2021/04/11 12:35:18;;;;;;;7.42;5.10;;;;;;;18.65;21.77;100603.55;1704004;81;21707;-58
2021/04/11 12:38:20;;;;;;;9.90;4.55;;;;;;;18.69;22.48;100610.40;1706025;82;21547;-60
2021/04/11 12:40:59;;;;;;;8.63;4.70;;;;;;;18.76;22.46;100598.88;1703721;82;21691;-60
2021/04/11 12:43:42;;;;;;;8.90;4.78;;;;;;;18.83;22.51;100602.91;1705607;83;21893;-61
2021/04/11 12:46:33;;;;;;;6.05;4.87;;;;;;;18.93;22.24;100604.52;1698915;81;21587;-60
2021/04/11 12:49:19;;;;;;;6.80;5.10;;;;;;;19.02;22.23;100610.16;1695029;81;21696;-60